createdAt,value
2018-12-14T00:02:14.725Z,62.83
2018-12-14T00:04:43.696Z,61.66
2018-12-14T00:07:12.520Z,61.62
2018-12-14T00:09:41.236Z,62.32
2018-12-14T00:12:09.980Z,62.17
2018-12-14T00:14:38.784Z,61.57
2018-12-14T00:17:07.627Z,62.12
2018-12-14T00:19:36.431Z,62.08
2018-12-14T00:22:08.456Z,61.95
2018-12-14T00:24:37.182Z,62.80
2018-12-14T00:27:06.025Z,62.44
2018-12-14T00:29:34.748Z,63.27
2018-12-14T00:32:03.569Z,61.89
2018-12-14T00:34:32.275Z,62.19
2018-12-14T00:37:01.623Z,61.25
2018-12-14T00:39:30.308Z,62.47
2018-12-14T00:41:59.014Z,62.14
2018-12-14T00:44:27.725Z,63.85
2018-12-14T00:46:56.598Z,61.70
2018-12-14T00:49:25.384Z,61.91
2018-12-14T00:51:54.159Z,62.58
2018-12-14T00:54:22.905Z,61.97
2018-12-14T00:56:51.638Z,62.63
2018-12-14T00:59:20.360Z,61.82
2018-12-14T01:01:49.079Z,62.64
2018-12-14T01:04:17.816Z,62.00
2018-12-14T01:06:46.593Z,61.22
2018-12-14T01:09:15.420Z,61.44
2018-12-14T01:11:44.112Z,60.98
2018-12-14T01:14:13.168Z,61.09
2018-12-14T01:16:41.981Z,60.96
2018-12-14T01:19:10.886Z,61.96
2018-12-14T01:21:39.651Z,60.99
2018-12-14T01:24:08.408Z,60.54
2018-12-14T01:26:37.103Z,60.99
2018-12-14T01:29:05.819Z,61.07
2018-12-14T01:31:34.635Z,60.60
2018-12-14T01:34:03.623Z,61.06
2018-12-14T01:36:32.380Z,61.42
2018-12-14T01:39:01.243Z,60.77
2018-12-14T01:41:29.949Z,60.80
2018-12-14T01:43:58.655Z,61.65
2018-12-14T01:46:27.344Z,60.85
2018-12-14T01:48:56.083Z,61.60
2018-12-14T01:51:24.791Z,62.84
2018-12-14T01:53:53.511Z,62.60
2018-12-14T01:56:22.329Z,62.90
2018-12-14T01:58:51.173Z,62.78
2018-12-14T02:01:19.949Z,62.52
2018-12-14T02:03:48.757Z,61.84
2018-12-14T02:06:17.528Z,61.42
2018-12-14T02:08:46.371Z,62.40
2018-12-14T02:11:15.051Z,62.42
2018-12-14T02:13:43.808Z,60.86
2018-12-14T02:16:12.496Z,63.04
2018-12-14T02:18:41.221Z,61.95
2018-12-14T02:21:10.043Z,62.03
2018-12-14T02:23:39.104Z,62.42
2018-12-14T02:26:07.800Z,62.75
2018-12-14T02:28:36.893Z,62.54
2018-12-14T02:31:05.623Z,63.53
2018-12-14T02:33:34.423Z,62.42
2018-12-14T02:36:03.152Z,61.45
2018-12-14T02:38:31.930Z,63.40
2018-12-14T02:41:03.742Z,62.13
2018-12-14T02:43:32.592Z,62.23
2018-12-14T02:46:01.323Z,61.82
2018-12-14T02:48:30.020Z,62.26
2018-12-14T02:50:58.786Z,62.67
2018-12-14T02:53:27.457Z,62.61
2018-12-14T02:55:56.168Z,62.32
2018-12-14T02:58:24.974Z,63.44
2018-12-14T03:00:53.802Z,63.43
2018-12-14T03:03:22.722Z,63.61
2018-12-14T03:05:51.535Z,63.58
2018-12-14T03:08:20.226Z,61.42
2018-12-14T03:10:48.940Z,62.47
2018-12-14T03:13:17.752Z,63.11
2018-12-14T03:15:46.483Z,63.15
2018-12-14T03:18:15.209Z,62.28
2018-12-14T03:20:43.914Z,63.21
2018-12-14T03:23:12.607Z,62.86
2018-12-14T03:25:41.615Z,62.27
2018-12-14T03:28:10.628Z,62.36
2018-12-14T03:30:39.353Z,61.77
2018-12-14T03:33:08.237Z,64.70
2018-12-14T03:35:36.941Z,61.79
2018-12-14T03:38:05.620Z,62.70
2018-12-14T03:40:34.355Z,62.46
2018-12-14T03:43:03.052Z,63.97
2018-12-14T03:45:32.575Z,63.87
2018-12-14T03:48:01.248Z,62.56
2018-12-14T03:50:30.599Z,62.70
2018-12-14T03:52:59.345Z,62.19
2018-12-14T03:55:28.052Z,62.14
2018-12-14T03:57:57.243Z,61.95
2018-12-14T04:00:26.486Z,62.97
2018-12-14T04:02:55.551Z,62.46
2018-12-14T04:05:24.718Z,62.55
2018-12-14T04:07:53.393Z,62.55
2018-12-14T04:10:22.097Z,61.68
2018-12-14T04:12:50.884Z,63.01
2018-12-14T04:15:19.584Z,62.55
2018-12-14T04:17:48.247Z,61.84
2018-12-14T04:20:16.996Z,61.83
2018-12-14T04:22:45.674Z,62.18
2018-12-14T04:25:14.508Z,62.34
2018-12-14T04:27:43.198Z,62.94
2018-12-14T04:30:12.134Z,63.59
2018-12-14T04:32:40.899Z,62.81
2018-12-14T04:35:09.663Z,63.75
2018-12-14T04:37:38.475Z,61.99
2018-12-14T04:40:08.063Z,62.67
2018-12-14T04:42:37.186Z,61.92
2018-12-14T04:45:06.827Z,62.00
2018-12-14T04:47:35.572Z,62.94
2018-12-14T04:50:04.509Z,61.02
2018-12-14T04:52:33.248Z,61.35
2018-12-14T04:55:02.123Z,61.55
2018-12-14T04:57:30.823Z,61.62
2018-12-14T04:59:59.565Z,63.15
2018-12-14T05:02:28.398Z,61.50
2018-12-14T05:04:57.244Z,61.67
2018-12-14T05:07:26.072Z,60.99
2018-12-14T05:09:54.832Z,61.10
2018-12-14T05:12:23.560Z,61.71
2018-12-14T05:14:52.617Z,62.48
2018-12-14T05:17:21.410Z,61.28
2018-12-14T05:19:50.303Z,61.71
2018-12-14T05:22:19.037Z,61.82
2018-12-14T05:24:47.973Z,63.02
2018-12-14T05:27:16.718Z,62.10
2018-12-14T05:29:45.971Z,62.44
2018-12-14T05:32:14.660Z,62.67
2018-12-14T05:34:43.424Z,62.54
2018-12-14T05:37:12.103Z,62.29
2018-12-14T05:39:40.821Z,62.32
2018-12-14T05:42:09.667Z,62.42
2018-12-14T05:44:38.368Z,61.38
2018-12-14T05:47:07.355Z,62.00
2018-12-14T05:49:36.232Z,61.38
2018-12-14T05:52:04.939Z,61.07
2018-12-14T05:54:33.707Z,61.06
2018-12-14T05:57:02.888Z,61.83
2018-12-14T05:59:31.734Z,61.65
2018-12-14T06:02:00.448Z,61.93
2018-12-14T06:04:29.171Z,62.57
2018-12-14T06:06:57.928Z,61.86
2018-12-14T06:09:26.688Z,61.58
2018-12-14T06:11:55.491Z,61.43
2018-12-14T06:14:24.353Z,62.02
2018-12-14T06:16:53.112Z,63.25
2018-12-14T06:19:21.824Z,62.07
2018-12-14T06:21:50.580Z,62.68
2018-12-14T06:24:19.291Z,62.21
2018-12-14T06:26:48.068Z,62.44
2018-12-14T06:29:16.843Z,62.39
2018-12-14T06:31:45.624Z,63.83
2018-12-14T06:34:14.748Z,62.82
2018-12-14T06:36:43.608Z,61.92
2018-12-14T06:39:12.304Z,62.62
2018-12-14T06:41:41.736Z,62.97
2018-12-14T06:44:10.784Z,63.62
2018-12-14T06:46:39.481Z,63.72
2018-12-14T06:49:08.543Z,63.75
2018-12-14T06:51:37.603Z,63.11
2018-12-14T06:54:06.887Z,63.74
2018-12-14T06:56:35.831Z,63.87
2018-12-14T06:59:04.786Z,63.97
2018-12-14T07:01:33.476Z,64.40
2018-12-14T07:04:02.199Z,63.79
2018-12-14T07:06:31.059Z,62.92
2018-12-14T07:08:59.773Z,63.45
2018-12-14T07:11:28.507Z,63.19
2018-12-14T07:13:57.420Z,63.37
2018-12-14T07:16:26.383Z,63.73
2018-12-14T07:18:55.095Z,63.83
2018-12-14T07:21:23.987Z,64.38
2018-12-14T07:23:52.693Z,63.98
2018-12-14T07:26:21.459Z,64.67
2018-12-14T07:28:50.903Z,63.63
2018-12-14T07:31:19.593Z,64.17
2018-12-14T07:33:48.521Z,64.95
2018-12-14T07:36:17.378Z,64.35
2018-12-14T07:38:48.273Z,63.47
2018-12-14T07:41:17.244Z,63.04
2018-12-14T07:43:45.976Z,64.27
2018-12-14T07:46:14.723Z,65.54
2018-12-14T07:48:43.621Z,65.30
2018-12-14T07:51:12.408Z,63.32
2018-12-14T07:53:41.139Z,63.91
2018-12-14T07:56:09.931Z,64.86
2018-12-14T07:58:39.142Z,63.50
2018-12-14T08:01:07.847Z,63.47
2018-12-14T08:03:37.069Z,64.43
2018-12-14T08:06:05.761Z,65.09
2018-12-14T08:08:34.560Z,62.19
2018-12-14T08:11:03.427Z,63.63
2018-12-14T08:13:34.752Z,63.74
2018-12-14T08:16:02.970Z,62.89
2018-12-14T08:18:31.714Z,62.94
2018-12-14T08:21:00.413Z,61.87
2018-12-14T08:23:29.128Z,61.91
2018-12-14T08:25:57.896Z,62.82
2018-12-14T08:28:26.607Z,62.28
2018-12-14T08:30:55.296Z,62.73
2018-12-14T08:33:24.045Z,62.16
2018-12-14T08:35:52.872Z,61.90
2018-12-14T08:38:21.603Z,61.36
2018-12-14T08:40:50.287Z,61.89
2018-12-14T08:43:19.157Z,61.41
2018-12-14T08:45:47.877Z,61.92
2018-12-14T08:48:16.604Z,62.15
2018-12-14T08:50:45.447Z,60.88
2018-12-14T08:53:14.648Z,62.28
2018-12-14T08:55:43.351Z,61.25
2018-12-14T08:58:12.061Z,60.93
2018-12-14T09:00:40.773Z,61.84
2018-12-14T09:03:09.471Z,60.81
2018-12-14T09:05:38.240Z,61.48
2018-12-14T09:08:06.939Z,60.50
2018-12-14T09:10:35.703Z,61.40
2018-12-14T09:13:04.445Z,61.98
2018-12-14T09:15:33.416Z,62.44
2018-12-14T09:18:02.352Z,60.74
2018-12-14T09:20:31.302Z,61.44
2018-12-14T09:23:00.720Z,61.27
2018-12-14T09:25:29.500Z,62.42
2018-12-14T09:27:58.203Z,61.83
2018-12-14T09:30:26.996Z,63.17
2018-12-14T09:32:55.872Z,61.78
2018-12-14T09:35:24.683Z,62.78
2018-12-14T09:37:53.568Z,62.68
2018-12-14T09:40:22.400Z,61.27
2018-12-14T09:42:51.351Z,62.39
2018-12-14T09:45:20.107Z,65.44
2018-12-14T09:47:49.018Z,61.57
2018-12-14T09:50:18.111Z,62.61
2018-12-14T09:52:46.837Z,59.93
2018-12-14T09:55:15.519Z,60.95
2018-12-14T09:57:44.247Z,59.46
2018-12-14T10:00:13.095Z,59.63
2018-12-14T10:02:42.368Z,58.88
2018-12-14T10:05:11.275Z,61.92
2018-12-14T10:07:46.656Z,60.05
2018-12-14T10:10:11.715Z,58.97
2018-12-14T10:12:40.487Z,62.56
2018-12-14T10:15:09.466Z,59.91
2018-12-14T10:17:38.299Z,58.86
2018-12-14T10:20:08.876Z,59.92
2018-12-14T10:22:41.556Z,58.08
2018-12-14T10:25:09.075Z,57.74
2018-12-14T10:27:37.776Z,58.65
2018-12-14T10:30:07.670Z,60.59
2018-12-14T10:32:36.507Z,58.37
2018-12-14T10:35:06.341Z,57.14
2018-12-14T10:37:35.325Z,60.22
2018-12-14T10:40:04.731Z,57.96
2018-12-14T10:42:33.523Z,56.10
2018-12-14T10:45:02.277Z,56.09
2018-12-14T10:47:31.000Z,57.18
2018-12-14T10:49:59.748Z,58.68
2018-12-14T10:52:28.383Z,58.49
2018-12-14T10:54:57.166Z,56.42
2018-12-14T10:57:26.027Z,57.11
2018-12-14T10:59:54.773Z,58.43
2018-12-14T11:02:23.545Z,56.48
2018-12-14T11:04:52.157Z,57.32
2018-12-14T11:07:20.952Z,58.14
2018-12-14T11:09:49.722Z,56.42
2018-12-14T11:12:18.452Z,57.38
2018-12-14T11:14:47.157Z,58.64
2018-12-14T11:17:15.839Z,56.62
2018-12-14T11:19:44.515Z,57.80
2018-12-14T11:22:13.321Z,57.32
2018-12-14T11:24:42.049Z,58.24
2018-12-14T11:27:10.680Z,57.89
2018-12-14T11:29:39.460Z,57.38
2018-12-14T11:32:08.087Z,59.90
2018-12-14T11:34:36.880Z,57.94
2018-12-14T11:37:05.506Z,59.46
2018-12-14T11:39:34.207Z,57.40
2018-12-14T11:42:03.089Z,57.42
2018-12-14T11:44:31.797Z,57.41
2018-12-14T11:47:00.515Z,57.43
2018-12-14T11:49:29.322Z,58.46
2018-12-14T11:51:58.088Z,57.82
2018-12-14T11:54:27.068Z,56.83
2018-12-14T11:56:55.888Z,55.51
2018-12-14T11:59:24.711Z,57.53
2018-12-14T12:01:53.549Z,57.05
2018-12-14T12:04:22.280Z,58.47
2018-12-14T12:06:50.941Z,59.07
2018-12-14T12:09:19.617Z,56.86
2018-12-14T12:11:48.398Z,57.22
2018-12-14T12:14:17.180Z,57.80
2018-12-14T12:16:45.987Z,57.48
2018-12-14T12:19:14.707Z,58.17
2018-12-14T12:21:43.687Z,57.48
2018-12-14T12:24:12.361Z,57.92
2018-12-14T12:26:41.051Z,58.49
2018-12-14T12:29:09.689Z,58.58
2018-12-14T12:31:38.378Z,57.98
2018-12-14T12:34:07.153Z,57.28
2018-12-14T12:36:35.851Z,58.00
2018-12-14T12:39:06.680Z,58.19
2018-12-14T12:41:35.357Z,58.61
2018-12-14T12:44:04.108Z,57.16
2018-12-14T12:46:32.868Z,56.36
2018-12-14T12:49:01.546Z,57.53
2018-12-14T12:51:30.844Z,56.24
2018-12-14T12:54:00.396Z,58.13
2018-12-14T12:56:30.353Z,59.13
2018-12-14T12:58:59.961Z,58.51
2018-12-14T13:01:29.490Z,56.43
2018-12-14T13:03:59.319Z,55.31
2018-12-14T13:06:28.902Z,56.49
2018-12-14T13:08:58.441Z,56.30
2018-12-14T13:11:28.023Z,54.72
2018-12-14T13:13:57.498Z,55.83
2018-12-14T13:16:27.413Z,56.61
2018-12-14T13:18:57.113Z,55.94
2018-12-14T13:21:26.826Z,57.63
2018-12-14T13:23:56.535Z,56.65
2018-12-14T13:26:26.474Z,56.24
2018-12-14T13:29:06.951Z,57.16
2018-12-14T13:31:37.464Z,56.15
2018-12-14T13:34:07.319Z,55.81
2018-12-14T13:36:36.777Z,56.26
2018-12-14T13:39:10.573Z,57.94
2018-12-14T13:41:40.341Z,57.57
2018-12-14T13:44:09.901Z,56.61
2018-12-14T13:46:39.817Z,57.70
2018-12-14T13:49:09.394Z,56.80
2018-12-14T13:51:39.138Z,58.36
2018-12-14T13:54:08.646Z,57.69
2018-12-14T13:56:38.278Z,55.63
2018-12-14T13:59:07.712Z,56.72
2018-12-14T14:01:37.157Z,57.10
2018-12-14T14:04:05.752Z,55.24
2018-12-14T14:06:34.462Z,58.44
2018-12-14T14:09:03.495Z,54.64
2018-12-14T14:11:32.260Z,56.02
2018-12-14T14:14:00.973Z,56.54
2018-12-14T14:16:29.634Z,56.42
2018-12-14T14:18:58.351Z,56.57
2018-12-14T14:21:27.185Z,56.40
2018-12-14T14:23:55.927Z,55.21
2018-12-14T14:26:24.832Z,55.33
2018-12-14T14:28:53.764Z,56.13
2018-12-14T14:31:22.697Z,54.79
2018-12-14T14:33:51.424Z,55.74
2018-12-14T14:36:20.137Z,55.98
2018-12-14T14:38:48.856Z,55.21
2018-12-14T14:41:17.600Z,55.65
2018-12-14T14:43:46.491Z,54.04
2018-12-14T14:46:15.442Z,54.97
2018-12-14T14:48:44.272Z,55.04
2018-12-14T14:51:13.351Z,55.31
2018-12-14T14:53:42.221Z,56.67
2018-12-14T14:56:11.187Z,56.59
2018-12-14T14:58:39.861Z,56.07
2018-12-14T15:01:08.630Z,57.67
2018-12-14T15:03:37.483Z,56.84
2018-12-14T15:06:06.214Z,56.30
2018-12-14T15:08:34.962Z,55.84
2018-12-14T15:11:03.675Z,56.92
2018-12-14T15:13:32.480Z,56.40
2018-12-14T15:16:01.105Z,59.97
2018-12-14T15:18:30.224Z,57.87
2018-12-14T15:20:58.970Z,57.34
2018-12-14T15:23:27.716Z,57.79
2018-12-14T15:25:56.379Z,56.88
2018-12-14T15:28:25.079Z,57.01
2018-12-14T15:30:53.944Z,57.20
2018-12-14T15:33:22.764Z,58.58
2018-12-14T15:35:51.622Z,57.61
2018-12-14T15:38:20.323Z,57.44
2018-12-14T15:40:49.180Z,57.01
2018-12-14T15:43:17.875Z,58.27
2018-12-14T15:45:46.639Z,57.12
2018-12-14T15:48:15.535Z,57.06
2018-12-14T15:50:44.351Z,57.28
2018-12-14T15:53:13.060Z,58.54
2018-12-14T15:55:41.769Z,57.86
2018-12-14T15:58:10.480Z,56.33
2018-12-14T16:00:39.267Z,58.10
2018-12-14T16:03:08.009Z,57.17
2018-12-14T16:05:36.863Z,56.90
2018-12-14T16:08:05.650Z,60.50
2018-12-14T16:10:34.409Z,58.56
2018-12-14T16:13:03.228Z,57.81
2018-12-14T16:15:32.090Z,57.25
2018-12-14T16:18:00.872Z,57.07
2018-12-14T16:20:29.629Z,58.92
2018-12-14T16:22:58.411Z,58.03
2018-12-14T16:25:27.353Z,56.94
2018-12-14T16:27:56.286Z,57.94
2018-12-14T16:30:25.031Z,57.43
2018-12-14T16:32:53.984Z,56.68
2018-12-14T16:35:22.962Z,57.16
2018-12-14T16:37:52.264Z,57.10
2018-12-14T16:40:21.021Z,56.04
2018-12-14T16:42:49.911Z,56.74
2018-12-14T16:45:18.748Z,55.37
2018-12-14T16:47:47.596Z,55.67
2018-12-14T16:50:16.311Z,56.18
2018-12-14T16:52:45.196Z,55.99
2018-12-14T16:55:13.888Z,57.82
2018-12-14T16:57:42.595Z,56.31
2018-12-14T17:00:11.663Z,55.95
2018-12-14T17:02:40.313Z,56.04
2018-12-14T17:05:09.097Z,57.02
2018-12-14T17:07:37.868Z,58.77
2018-12-14T17:10:07.197Z,57.53
2018-12-14T17:12:35.836Z,58.59
2018-12-14T17:15:05.320Z,55.78
2018-12-14T17:17:34.366Z,55.96
2018-12-14T17:20:03.022Z,56.81
2018-12-14T17:22:31.656Z,56.90
2018-12-14T17:25:00.643Z,57.06
2018-12-14T17:27:29.595Z,57.01
2018-12-14T17:29:58.201Z,57.05
2018-12-14T17:32:26.951Z,57.92
2018-12-14T17:34:55.655Z,56.58
2018-12-14T17:37:24.359Z,56.30
2018-12-14T17:39:53.172Z,56.84
2018-12-14T17:42:21.986Z,55.60
2018-12-14T17:44:50.717Z,56.15
2018-12-14T17:47:19.455Z,55.94
2018-12-14T17:49:48.171Z,56.87
2018-12-14T17:52:16.879Z,57.09
2018-12-14T17:54:45.632Z,57.65
2018-12-14T17:57:14.417Z,57.36
2018-12-14T17:59:43.122Z,57.48
2018-12-14T18:02:11.931Z,57.49
2018-12-14T18:04:40.785Z,58.51
2018-12-14T18:07:09.889Z,57.96
2018-12-14T18:09:38.638Z,57.94
2018-12-14T18:12:07.480Z,56.78
2018-12-14T18:14:36.228Z,56.88
2018-12-14T18:17:05.038Z,57.51
2018-12-14T18:19:33.753Z,56.51
2018-12-14T18:22:02.565Z,57.04
2018-12-14T18:24:31.381Z,57.67
2018-12-14T18:27:00.193Z,58.05
2018-12-14T18:29:28.943Z,57.62
2018-12-14T18:31:57.819Z,57.31
2018-12-14T18:34:26.765Z,56.81
2018-12-14T18:36:55.581Z,58.92
2018-12-14T18:39:24.383Z,57.66
2018-12-14T18:41:53.193Z,59.10
2018-12-14T18:44:21.985Z,59.66
2018-12-14T18:46:50.753Z,57.67
2018-12-14T18:49:19.536Z,57.41
2018-12-14T18:51:48.316Z,57.04
2018-12-14T18:54:17.676Z,56.85
2018-12-14T18:56:46.413Z,56.48
2018-12-14T18:59:15.326Z,55.96
2018-12-14T19:01:44.052Z,56.48
2018-12-14T19:04:12.961Z,57.86
2018-12-14T19:06:41.733Z,57.93
2018-12-14T19:09:10.629Z,57.74
2018-12-14T19:11:39.343Z,57.45
2018-12-14T19:14:08.094Z,57.14
2018-12-14T19:16:36.929Z,57.47
2018-12-14T19:19:05.667Z,58.34
2018-12-14T19:21:34.449Z,57.98
2018-12-14T19:24:03.144Z,58.11
2018-12-14T19:26:31.943Z,57.96
2018-12-14T19:29:02.062Z,57.92
2018-12-14T19:31:31.104Z,57.07
2018-12-14T19:33:59.815Z,57.69
2018-12-14T19:36:28.661Z,57.94
2018-12-14T19:38:57.508Z,57.85
2018-12-14T19:41:26.330Z,58.37
2018-12-14T19:43:55.245Z,58.41
2018-12-14T19:46:24.171Z,58.07
2018-12-14T19:48:55.819Z,59.80
2018-12-14T19:51:24.667Z,59.31
2018-12-14T19:53:53.362Z,58.67
2018-12-14T19:56:22.216Z,58.69
2018-12-14T19:58:50.985Z,58.90
2018-12-14T20:01:19.827Z,58.37
2018-12-14T20:03:48.508Z,59.14
2018-12-14T20:06:17.243Z,58.89
2018-12-14T20:08:45.958Z,59.36
2018-12-14T20:11:14.755Z,58.69
2018-12-14T20:13:43.535Z,58.78
2018-12-14T20:16:12.944Z,58.41
2018-12-14T20:18:41.814Z,58.75
2018-12-14T20:21:10.519Z,59.05
2018-12-14T20:23:40.064Z,59.11
2018-12-14T20:26:08.935Z,57.89
2018-12-14T20:28:37.881Z,58.61
2018-12-14T20:31:06.948Z,57.34
2018-12-14T20:33:35.643Z,58.89
2018-12-14T20:36:04.717Z,58.04
2018-12-14T20:38:33.616Z,58.33
2018-12-14T20:41:02.514Z,57.66
2018-12-14T20:43:31.225Z,57.35
2018-12-14T20:46:00.067Z,58.27
2018-12-14T20:48:28.762Z,58.25
2018-12-14T20:50:57.499Z,56.65
2018-12-14T20:53:26.735Z,56.79
2018-12-14T20:55:55.561Z,56.79
2018-12-14T20:58:24.312Z,57.51
2018-12-14T21:00:53.059Z,56.81
2018-12-14T21:03:23.939Z,57.26
2018-12-14T21:05:52.753Z,57.15
2018-12-14T21:08:21.494Z,58.04
2018-12-14T21:10:50.295Z,58.40
2018-12-14T21:13:19.145Z,58.18
2018-12-14T21:15:47.931Z,57.51
2018-12-14T21:18:16.734Z,57.71
2018-12-14T21:20:45.715Z,56.70
2018-12-14T21:23:14.768Z,57.62
2018-12-14T21:25:43.633Z,56.03
2018-12-14T21:28:12.535Z,58.26
2018-12-14T21:30:41.223Z,56.57
2018-12-14T21:33:09.948Z,57.61
2018-12-14T21:35:38.752Z,56.39
2018-12-14T21:38:07.511Z,56.20
2018-12-14T21:40:36.347Z,56.17
2018-12-14T21:43:05.068Z,55.92
2018-12-14T21:45:33.889Z,57.08
2018-12-14T21:48:02.638Z,56.42
2018-12-14T21:50:31.500Z,56.64
2018-12-14T21:53:00.335Z,56.79
2018-12-14T21:55:29.275Z,58.00
2018-12-14T21:57:58.039Z,57.27
2018-12-14T22:00:26.827Z,58.09
2018-12-14T22:02:55.884Z,56.32
2018-12-14T22:05:24.711Z,57.70
2018-12-14T22:07:53.497Z,55.45
2018-12-14T22:10:22.264Z,56.54
2018-12-14T22:12:50.973Z,57.12
2018-12-14T22:15:19.730Z,56.04
2018-12-14T22:17:48.457Z,57.15
2018-12-14T22:20:17.225Z,55.94
2018-12-14T22:22:45.990Z,56.36
2018-12-14T22:25:14.720Z,56.42
2018-12-14T22:27:43.452Z,56.48
2018-12-14T22:30:12.383Z,58.05
2018-12-14T22:32:41.496Z,57.07
2018-12-14T22:35:10.271Z,57.47
2018-12-14T22:37:39.099Z,56.94
2018-12-14T22:40:08.655Z,58.33
2018-12-14T22:42:37.404Z,57.94
2018-12-14T22:45:07.035Z,56.63
2018-12-14T22:47:35.740Z,57.00
2018-12-14T22:50:05.196Z,56.94
2018-12-14T22:52:34.024Z,56.14
2018-12-14T22:55:02.880Z,56.87
2018-12-14T22:57:31.607Z,56.54
2018-12-14T23:00:00.361Z,57.03
2018-12-14T23:02:29.176Z,56.80
2018-12-14T23:04:57.931Z,56.24
2018-12-14T23:07:26.755Z,56.91
2018-12-14T23:09:55.527Z,56.36
2018-12-14T23:12:24.163Z,56.85
2018-12-14T23:14:53.115Z,57.70
2018-12-14T23:17:21.899Z,57.41
2018-12-14T23:19:50.710Z,58.13
2018-12-14T23:22:19.548Z,57.49
2018-12-14T23:24:48.287Z,56.85
2018-12-14T23:27:17.003Z,57.06
2018-12-14T23:29:45.736Z,56.88
2018-12-14T23:32:14.471Z,56.97
2018-12-14T23:34:43.112Z,56.93
2018-12-14T23:37:14.047Z,57.35
2018-12-14T23:39:42.675Z,58.44
2018-12-14T23:42:11.395Z,57.29
2018-12-14T23:44:40.264Z,57.86
2018-12-14T23:47:09.063Z,57.87
2018-12-14T23:49:38.016Z,57.27
2018-12-14T23:52:06.829Z,57.44
2018-12-14T23:54:35.592Z,57.31
2018-12-14T23:57:04.392Z,57.68
2018-12-14T23:59:33.083Z,57.99
